createdAt,value
2024-04-06T00:00:44.950Z,0.00
2024-04-06T00:01:40.105Z,0.00
2024-04-06T00:02:35.229Z,0.00
2024-04-06T00:03:30.770Z,0.00
2024-04-06T00:04:25.637Z,0.00
2024-04-06T00:05:20.784Z,0.00
2024-04-06T00:06:15.900Z,0.00
2024-04-06T00:07:11.013Z,0.00
2024-04-06T00:08:13.233Z,0.00
2024-04-06T00:09:02.469Z,0.00
2024-04-06T00:09:56.508Z,0.00
2024-04-06T00:10:51.628Z,0.00
2024-04-06T00:11:46.831Z,0.00
2024-04-06T00:12:42.071Z,0.00
2024-04-06T00:13:37.464Z,0.00
2024-04-06T00:14:32.322Z,0.00
2024-04-06T00:15:27.441Z,0.00
2024-04-06T00:16:22.685Z,0.00
2024-04-06T00:17:17.799Z,0.00
2024-04-06T00:18:12.912Z,0.00
2024-04-06T00:19:08.230Z,0.00
2024-04-06T00:20:03.212Z,0.00
2024-04-06T00:20:58.302Z,0.00
2024-04-06T00:21:53.462Z,0.00
2024-04-06T00:22:48.560Z,0.00
2024-04-06T00:23:43.841Z,0.00
2024-04-06T00:24:38.830Z,0.00
2024-04-06T00:25:33.944Z,0.00
2024-04-06T00:26:29.120Z,0.00
2024-04-06T00:27:24.204Z,0.00
2024-04-06T00:28:19.299Z,0.00
2024-04-06T00:29:14.623Z,0.00
2024-04-06T00:30:09.597Z,0.00
2024-04-06T00:31:04.698Z,0.00
2024-04-06T00:31:59.948Z,0.00
2024-04-06T00:32:55.062Z,0.00
2024-04-06T00:33:50.296Z,0.00
2024-04-06T00:34:45.337Z,0.00
2024-04-06T00:35:40.445Z,0.00
2024-04-06T00:36:35.615Z,0.00
2024-04-06T00:37:30.719Z,0.00
2024-04-06T00:38:25.946Z,0.00
2024-04-06T00:39:21.360Z,0.00
2024-04-06T00:40:16.207Z,0.00
2024-04-06T00:41:11.936Z,0.00
2024-04-06T00:42:06.562Z,0.00
2024-04-06T00:43:01.721Z,0.00
2024-04-06T00:43:57.463Z,0.00
2024-04-06T00:44:52.144Z,0.00
2024-04-06T00:45:47.262Z,0.00
2024-04-06T00:46:42.396Z,0.00
2024-04-06T00:47:37.563Z,0.00
2024-04-06T00:48:32.659Z,0.00
2024-04-06T00:49:27.978Z,0.00
2024-04-06T00:50:22.954Z,0.00
2024-04-06T00:51:18.089Z,0.00
2024-04-06T00:52:13.380Z,0.00
2024-04-06T00:53:08.559Z,0.00
2024-04-06T00:54:04.100Z,0.00
2024-04-06T00:54:58.974Z,0.00
2024-04-06T00:55:54.089Z,0.00
2024-04-06T00:56:49.249Z,0.00
2024-04-06T00:57:44.333Z,0.00
2024-04-06T00:58:39.449Z,0.00
2024-04-06T00:59:34.734Z,0.00
2024-04-06T01:00:29.724Z,0.00
2024-04-06T01:01:24.847Z,0.00
2024-04-06T01:02:19.981Z,0.00
2024-04-06T01:03:15.110Z,0.00
2024-04-06T01:04:10.384Z,0.00
2024-04-06T01:05:05.385Z,0.00
2024-04-06T01:06:00.672Z,0.00
2024-04-06T01:06:55.811Z,0.00
2024-04-06T01:07:50.959Z,0.00
2024-04-06T01:08:46.141Z,0.00
2024-04-06T01:09:41.260Z,0.00
2024-04-06T01:10:36.366Z,0.00
2024-04-06T01:11:31.618Z,0.00
2024-04-06T01:12:26.773Z,0.00
2024-04-06T01:13:22.007Z,0.00
2024-04-06T01:14:17.265Z,0.00
2024-04-06T01:15:12.273Z,0.00
2024-04-06T01:16:07.411Z,0.00
2024-04-06T01:17:02.567Z,0.00
2024-04-06T01:17:58.022Z,0.00
2024-04-06T01:18:53.146Z,0.00
2024-04-06T01:19:48.423Z,0.00
2024-04-06T01:20:43.548Z,0.00
2024-04-06T01:21:38.630Z,0.00
2024-04-06T01:22:33.777Z,0.00
2024-04-06T01:23:28.937Z,0.00
2024-04-06T01:24:24.342Z,0.00
2024-04-06T01:25:19.213Z,0.00
2024-04-06T01:26:14.339Z,0.00
2024-04-06T01:27:09.479Z,0.00
2024-04-06T01:28:04.584Z,0.00
2024-04-06T01:28:59.725Z,0.00
2024-04-06T01:29:54.879Z,0.00
2024-04-06T01:30:50.130Z,0.00
2024-04-06T01:31:45.275Z,0.00
2024-04-06T01:32:40.453Z,0.00
2024-04-06T01:33:35.555Z,0.00
2024-04-06T01:34:31.080Z,0.00
2024-04-06T01:35:26.011Z,0.00
2024-04-06T01:36:21.107Z,0.00
2024-04-06T01:37:16.368Z,0.00
2024-04-06T01:38:11.558Z,0.00
2024-04-06T01:39:07.039Z,0.00
2024-04-06T01:40:02.067Z,0.00
2024-04-06T01:40:57.181Z,0.00
2024-04-06T01:41:52.293Z,0.00
2024-04-06T01:42:47.433Z,0.00
2024-04-06T01:43:42.539Z,0.00
2024-04-06T01:44:37.970Z,0.00
2024-04-06T01:45:32.938Z,0.00
2024-04-06T01:46:28.373Z,0.00
2024-04-06T01:47:23.524Z,0.00
2024-04-06T01:48:18.650Z,0.00
2024-04-06T01:49:14.029Z,0.00
2024-04-06T01:50:09.178Z,0.00
2024-04-06T01:51:04.360Z,0.00
2024-04-06T01:51:59.472Z,0.00
2024-04-06T01:52:54.627Z,0.00
2024-04-06T01:53:49.708Z,0.00
2024-04-06T01:54:45.118Z,0.00
2024-04-06T01:55:39.999Z,0.00
2024-04-06T01:56:35.113Z,0.00
2024-04-06T01:57:30.238Z,0.00
2024-04-06T01:58:25.350Z,0.00
2024-04-06T01:59:20.663Z,0.00
2024-04-06T02:00:15.656Z,0.00
2024-04-06T02:01:10.771Z,0.00
2024-04-06T02:02:05.922Z,0.00
2024-04-06T02:03:01.069Z,0.00
2024-04-06T02:03:56.161Z,0.00
2024-04-06T02:04:51.420Z,0.00
2024-04-06T02:05:46.441Z,0.00
2024-04-06T02:06:41.563Z,0.00
2024-04-06T02:07:36.702Z,0.00
2024-04-06T02:08:31.843Z,0.00
2024-04-06T02:09:27.095Z,0.00
2024-04-06T02:10:22.110Z,0.00
2024-04-06T02:11:17.218Z,0.00
2024-04-06T02:12:12.452Z,0.00
2024-04-06T02:13:07.469Z,0.00
2024-04-06T02:14:02.619Z,0.00
2024-04-06T02:14:57.637Z,0.00
2024-04-06T02:15:55.395Z,0.00
2024-04-06T02:16:50.514Z,0.00
2024-04-06T02:17:45.627Z,0.00
2024-04-06T02:18:40.771Z,0.00
2024-04-06T02:19:36.112Z,0.00
2024-04-06T02:20:31.736Z,0.00
2024-04-06T02:21:26.864Z,0.00
2024-04-06T02:22:22.196Z,0.00
2024-04-06T02:23:17.832Z,0.00
2024-04-06T02:24:13.172Z,0.00
2024-04-06T02:25:08.749Z,0.00
2024-04-06T02:26:03.868Z,0.00
2024-04-06T02:26:59.151Z,0.00
2024-04-06T02:27:54.876Z,0.00
2024-04-06T02:28:50.027Z,0.00
2024-04-06T02:29:45.336Z,0.00
2024-04-06T02:30:41.575Z,0.00
2024-04-06T02:31:36.757Z,0.00
2024-04-06T02:32:32.687Z,0.00
2024-04-06T02:33:27.805Z,0.00
2024-04-06T02:34:23.053Z,0.00
2024-04-06T02:35:18.807Z,0.00
2024-04-06T02:36:14.059Z,0.00
2024-04-06T02:37:09.894Z,0.00
2024-04-06T02:38:05.076Z,0.00
2024-04-06T02:39:00.303Z,0.00
2024-04-06T02:39:56.141Z,0.00
2024-04-06T02:40:52.178Z,0.00
2024-04-06T02:41:46.544Z,0.00
2024-04-06T02:42:41.579Z,0.00
2024-04-06T02:43:36.611Z,0.00
2024-04-06T02:44:31.817Z,0.00
2024-04-06T02:45:26.659Z,0.00
2024-04-06T02:46:21.688Z,0.00
2024-04-06T02:47:16.746Z,0.00
2024-04-06T02:48:11.804Z,0.00
2024-04-06T02:49:12.292Z,0.00
2024-04-06T02:50:07.221Z,0.00
2024-04-06T02:51:02.434Z,0.00
2024-04-06T02:51:58.207Z,0.00
2024-04-06T02:52:53.411Z,0.00
2024-04-06T02:53:48.721Z,0.00
2024-04-06T02:54:44.822Z,0.00
2024-04-06T02:55:39.998Z,0.00
2024-04-06T02:56:35.880Z,0.00
2024-04-06T02:57:31.006Z,0.00
2024-04-06T02:58:26.293Z,0.00
2024-04-06T02:59:22.249Z,0.00
2024-04-06T03:00:17.292Z,0.00
2024-04-06T03:01:13.151Z,0.00
2024-04-06T03:02:08.283Z,0.00
2024-04-06T03:03:03.588Z,0.00
2024-04-06T03:03:59.330Z,0.00
2024-04-06T03:04:54.534Z,0.00
2024-04-06T03:05:49.742Z,0.00
2024-04-06T03:06:46.049Z,0.00
2024-04-06T03:07:41.292Z,0.00
2024-04-06T03:08:37.022Z,0.00
2024-04-06T03:09:32.316Z,0.00
2024-04-06T03:10:27.414Z,0.00
2024-04-06T03:11:23.139Z,0.00
2024-04-06T03:12:18.424Z,0.00
2024-04-06T03:13:14.270Z,0.00
2024-04-06T03:14:09.389Z,0.00
2024-04-06T03:15:04.715Z,0.00
2024-04-06T03:16:02.298Z,0.00
2024-04-06T03:16:55.924Z,0.00
2024-04-06T03:17:52.022Z,0.00
2024-04-06T03:18:47.352Z,0.00
2024-04-06T03:19:42.616Z,0.00
2024-04-06T03:20:37.578Z,0.00
2024-04-06T03:21:32.833Z,0.00
2024-04-06T03:22:29.483Z,0.00
2024-04-06T03:23:24.689Z,0.00
2024-04-06T03:24:19.906Z,0.00
2024-04-06T03:25:16.231Z,0.00
2024-04-06T03:26:11.331Z,0.00
2024-04-06T03:27:07.148Z,0.00
2024-04-06T03:28:02.302Z,0.00
2024-04-06T03:28:57.525Z,0.00
2024-04-06T03:29:53.282Z,0.00
2024-04-06T03:30:48.532Z,0.00
2024-04-06T03:31:44.274Z,0.00
2024-04-06T03:32:39.489Z,0.00
2024-04-06T03:33:34.712Z,0.00
2024-04-06T03:34:30.513Z,0.00
2024-04-06T03:35:25.754Z,0.00
2024-04-06T03:36:21.198Z,0.00
2024-04-06T03:37:17.194Z,0.00
2024-04-06T03:38:12.369Z,0.00
2024-04-06T03:39:07.562Z,0.00
2024-04-06T03:40:02.944Z,0.00
2024-04-06T03:40:57.993Z,0.00
2024-04-06T03:41:53.935Z,0.00
2024-04-06T03:42:49.142Z,0.00
2024-04-06T03:43:44.338Z,0.00
2024-04-06T03:44:40.275Z,0.00
2024-04-06T03:45:35.344Z,0.00
2024-04-06T03:46:30.515Z,0.00
2024-04-06T03:47:25.765Z,0.00
2024-04-06T03:48:20.968Z,0.00
2024-04-06T03:49:16.434Z,0.00
2024-04-06T03:50:12.632Z,0.00
2024-04-06T03:51:07.809Z,0.00
2024-04-06T03:52:03.177Z,0.00
2024-04-06T03:53:02.301Z,0.00
2024-04-06T03:53:57.504Z,0.00
2024-04-06T03:54:52.730Z,0.00
2024-04-06T03:55:47.943Z,0.00
2024-04-06T03:56:43.019Z,0.00
2024-04-06T03:57:38.100Z,0.00
2024-04-06T03:58:33.089Z,0.00
2024-04-06T03:59:33.930Z,0.00
2024-04-06T04:00:29.258Z,0.00
2024-04-06T04:01:24.445Z,0.00
2024-04-06T04:02:19.520Z,0.00
2024-04-06T04:03:14.859Z,0.00
2024-04-06T04:04:10.072Z,0.00
2024-04-06T04:05:05.286Z,0.00
2024-04-06T04:06:00.554Z,0.00
2024-04-06T04:06:55.747Z,0.00
2024-04-06T04:07:50.947Z,0.00
2024-04-06T04:08:46.141Z,0.00
2024-04-06T04:09:41.390Z,0.00
2024-04-06T04:10:36.727Z,0.00
2024-04-06T04:11:32.017Z,0.00
2024-04-06T04:12:27.079Z,0.00
2024-04-06T04:13:22.306Z,0.00
2024-04-06T04:14:17.489Z,1.00
2024-04-06T04:15:12.707Z,1.00
2024-04-06T04:16:08.023Z,1.00
2024-04-06T04:17:03.102Z,1.00
2024-04-06T04:17:58.442Z,1.00
2024-04-06T04:18:53.823Z,1.00
2024-04-06T04:19:48.977Z,2.00
2024-04-06T04:20:44.375Z,1.00
2024-04-06T04:21:39.400Z,2.00
2024-04-06T04:22:34.509Z,2.00
2024-04-06T04:23:29.752Z,3.00
2024-04-06T04:24:24.951Z,3.00
2024-04-06T04:25:20.220Z,4.00
2024-04-06T04:26:15.431Z,5.00
2024-04-06T04:27:10.631Z,5.00
2024-04-06T04:28:05.966Z,6.00
2024-04-06T04:29:01.024Z,7.00
2024-04-06T04:29:56.250Z,10.00
2024-04-06T04:30:52.008Z,10.00
2024-04-06T04:31:47.228Z,13.00
2024-04-06T04:32:42.506Z,15.00
2024-04-06T04:33:37.724Z,18.00
2024-04-06T04:34:33.117Z,20.00
2024-04-06T04:35:28.383Z,25.00
2024-04-06T04:36:23.654Z,28.00
2024-04-06T04:37:18.914Z,31.00
2024-04-06T04:38:14.165Z,36.00
2024-04-06T04:39:09.270Z,41.00
2024-04-06T04:40:04.448Z,45.00
2024-04-06T04:40:59.296Z,53.00
2024-04-06T04:41:54.353Z,59.00
2024-04-06T04:42:49.388Z,63.00
2024-04-06T04:43:44.456Z,73.00
2024-04-06T04:44:43.350Z,75.00
2024-04-06T04:45:34.558Z,87.00
2024-04-06T04:46:29.626Z,99.00
2024-04-06T04:47:24.718Z,102.00
2024-04-06T04:48:19.908Z,113.00
2024-04-06T04:49:15.132Z,123.00
2024-04-06T04:50:10.414Z,133.00
2024-04-06T04:51:05.672Z,144.00
2024-04-06T04:52:00.812Z,157.00
2024-04-06T04:52:55.771Z,169.00
2024-04-06T04:53:50.788Z,177.00
2024-04-06T04:54:45.897Z,202.00
2024-04-06T04:55:40.901Z,219.00
2024-04-06T04:56:35.907Z,240.00
2024-04-06T04:57:30.958Z,257.00
2024-04-06T04:58:25.975Z,277.00
2024-04-06T04:59:21.021Z,307.00
2024-04-06T05:00:16.236Z,328.00
2024-04-06T05:01:11.125Z,359.00
2024-04-06T05:02:06.316Z,391.00
2024-04-06T05:03:01.364Z,419.00
2024-04-06T05:03:56.406Z,439.00
2024-04-06T05:04:51.593Z,474.00
2024-04-06T05:05:46.553Z,513.00
2024-04-06T05:06:41.681Z,521.00
2024-04-06T05:07:36.752Z,573.00
2024-04-06T05:08:31.867Z,589.00
2024-04-06T05:09:26.844Z,619.00
2024-04-06T05:10:21.948Z,701.00
2024-04-06T05:11:20.431Z,718.00
2024-04-06T05:12:15.527Z,768.00
2024-04-06T05:13:10.718Z,773.00
2024-04-06T05:14:05.888Z,829.00
2024-04-06T05:15:00.966Z,845.00
2024-04-06T05:15:56.043Z,901.00
2024-04-06T05:16:50.966Z,920.00
2024-04-06T05:17:46.032Z,989.00
2024-04-06T05:18:41.155Z,999.00
2024-04-06T05:19:36.261Z,1050.00
2024-04-06T05:20:31.338Z,1122.00
2024-04-06T05:21:26.344Z,1168.00
2024-04-06T05:22:21.347Z,1130.00
2024-04-06T05:23:16.394Z,1229.00
2024-04-06T05:24:11.542Z,1252.00
2024-04-06T05:25:06.942Z,1285.00
2024-04-06T05:26:02.411Z,1317.00
2024-04-06T05:26:57.809Z,1374.00
2024-04-06T05:27:53.373Z,1413.00
2024-04-06T05:28:48.651Z,1421.00
2024-04-06T05:29:44.081Z,1455.00
2024-04-06T05:30:39.676Z,1511.00
2024-04-06T05:31:34.822Z,1529.00
2024-04-06T05:32:30.247Z,1579.00
2024-04-06T05:33:25.669Z,1598.00
2024-04-06T05:34:25.147Z,1662.00
2024-04-06T05:35:20.517Z,1701.00
2024-04-06T05:36:16.221Z,1737.00
2024-04-06T05:37:11.377Z,1775.00
2024-04-06T05:38:06.818Z,1802.00
2024-04-06T05:39:02.124Z,1814.00
2024-04-06T05:39:57.552Z,1883.00
2024-04-06T05:40:52.975Z,1859.00
2024-04-06T05:41:48.412Z,1943.00
2024-04-06T05:42:43.907Z,2063.00
2024-04-06T05:43:39.320Z,2014.00
2024-04-06T05:44:34.829Z,2049.00
2024-04-06T05:45:30.273Z,2078.00
2024-04-06T05:46:25.868Z,2101.00
2024-04-06T05:47:21.227Z,2127.00
2024-04-06T05:48:16.283Z,2180.00
2024-04-06T05:49:11.338Z,2211.00
2024-04-06T05:50:06.413Z,2221.00
2024-04-06T05:51:01.495Z,2219.00
2024-04-06T05:51:56.649Z,2267.00
2024-04-06T05:52:51.677Z,2291.00
2024-04-06T05:53:48.608Z,2310.00
2024-04-06T05:54:43.735Z,2388.00
2024-04-06T05:55:38.824Z,2417.00
2024-04-06T05:56:35.037Z,2525.00
2024-04-06T05:57:28.986Z,2520.00
2024-04-06T05:58:24.198Z,2466.00
2024-04-06T05:59:19.314Z,2495.00
2024-04-06T06:00:14.318Z,2474.00
2024-04-06T06:01:09.592Z,2548.00
2024-04-06T06:02:04.508Z,2614.00
2024-04-06T06:03:00.832Z,2638.00
2024-04-06T06:03:56.266Z,2708.00
2024-04-06T06:04:52.252Z,2699.00
2024-04-06T06:05:47.737Z,2779.00
2024-04-06T06:06:43.434Z,2813.00
2024-04-06T06:07:38.970Z,2855.00
2024-04-06T06:08:34.354Z,2904.00
2024-04-06T06:09:30.153Z,2941.00
2024-04-06T06:10:25.494Z,2958.00
2024-04-06T06:11:21.003Z,3085.00
2024-04-06T06:12:16.886Z,3112.00
2024-04-06T06:13:12.270Z,3104.00
2024-04-06T06:14:07.727Z,3164.00
2024-04-06T06:15:03.921Z,3202.00
2024-04-06T06:15:59.408Z,3253.00
2024-04-06T06:16:55.312Z,3311.00
2024-04-06T06:17:50.670Z,3388.00
2024-04-06T06:18:46.145Z,3425.00
2024-04-06T06:19:41.951Z,3560.00
2024-04-06T06:20:37.494Z,3528.00
2024-04-06T06:21:33.520Z,3669.00
2024-04-06T06:22:28.803Z,3608.00
2024-04-06T06:23:24.153Z,3549.00
2024-04-06T06:24:19.943Z,3590.00
2024-04-06T06:25:15.422Z,3603.00
2024-04-06T06:26:11.058Z,3770.00
2024-04-06T06:27:07.112Z,3783.00
2024-04-06T06:28:02.565Z,3867.00
2024-04-06T06:28:58.527Z,3904.00
2024-04-06T06:29:53.838Z,3984.00
2024-04-06T06:30:49.306Z,4021.00
2024-04-06T06:31:45.076Z,4080.00
2024-04-06T06:32:40.586Z,4130.00
2024-04-06T06:33:36.444Z,4140.00
2024-04-06T06:34:31.797Z,4162.00
2024-04-06T06:35:27.288Z,4265.00
2024-04-06T06:38:13.911Z,4476.00
2024-04-06T06:41:00.587Z,4666.00
2024-04-06T06:41:56.058Z,4702.00
2024-04-06T06:42:52.398Z,4793.00
2024-04-06T06:43:47.861Z,4868.00
2024-04-06T06:44:43.636Z,4962.00
2024-04-06T06:45:39.149Z,4997.00
2024-04-06T06:46:34.524Z,5141.00
2024-04-06T06:47:30.543Z,5296.00
2024-04-06T06:48:25.990Z,5387.00
2024-04-06T06:49:21.766Z,5383.00
2024-04-06T06:50:17.234Z,5567.00
2024-04-06T06:51:12.725Z,5668.00
2024-04-06T06:52:08.377Z,5843.00
2024-04-06T06:53:03.689Z,6057.00
2024-04-06T06:53:59.470Z,6130.00
2024-04-06T06:54:54.990Z,6298.00
2024-04-06T06:55:50.919Z,6477.00
2024-04-06T06:56:46.172Z,6686.00
2024-04-06T06:57:41.508Z,6581.00
2024-04-06T06:58:37.275Z,6553.00
2024-04-06T07:00:28.275Z,6912.00
2024-04-06T07:01:23.364Z,7052.00
2024-04-06T07:02:18.481Z,7244.00
2024-04-06T07:03:13.702Z,7231.00
2024-04-06T07:04:08.673Z,7371.00
2024-04-06T07:05:03.785Z,7407.00
2024-04-06T07:05:58.950Z,7687.00
2024-04-06T07:07:49.187Z,8154.00
2024-04-06T07:09:02.274Z,8190.00
2024-04-06T07:09:40.337Z,8193.00
2024-04-06T07:10:34.333Z,8323.00
2024-04-06T07:11:30.214Z,8586.00
2024-04-06T07:12:25.837Z,8702.00
2024-04-06T07:13:21.226Z,8993.00
2024-04-06T07:14:17.092Z,8786.00
2024-04-06T07:15:12.556Z,9633.00
2024-04-06T07:16:08.083Z,9618.00
2024-04-06T07:17:03.565Z,9726.00
2024-04-06T07:17:58.642Z,10072.00
2024-04-06T07:18:53.698Z,10403.00
2024-04-06T07:19:48.689Z,10586.00
2024-04-06T07:20:43.714Z,10813.00
2024-04-06T07:21:38.840Z,10971.00
2024-04-06T07:22:33.825Z,11220.00
2024-04-06T07:23:28.829Z,11223.00
2024-04-06T07:24:23.961Z,11632.00
2024-04-06T07:25:18.923Z,11876.00
2024-04-06T07:26:13.936Z,12113.00
2024-04-06T07:27:09.095Z,12262.00
2024-04-06T07:28:04.148Z,12531.00
2024-04-06T07:28:59.228Z,12774.00
2024-04-06T07:29:54.358Z,12865.00
2024-04-06T07:30:49.356Z,12950.00
2024-04-06T07:31:44.373Z,13491.00
2024-04-06T07:32:39.364Z,14025.00
2024-04-06T07:33:34.374Z,14861.00
2024-04-06T07:34:29.354Z,15692.00
2024-04-06T07:35:24.883Z,17280.00
2024-04-06T07:36:20.449Z,18224.00
2024-04-06T07:37:15.692Z,21888.00
2024-04-06T07:38:13.839Z,27464.00
2024-04-06T07:40:02.743Z,29408.00
2024-04-06T07:40:58.208Z,29960.00
2024-04-06T07:41:53.808Z,29976.00
2024-04-06T07:42:49.371Z,28112.00
2024-04-06T07:43:44.816Z,29632.00
2024-04-06T07:44:40.379Z,35272.00
2024-04-06T07:45:35.804Z,37224.00
2024-04-06T07:46:31.386Z,35952.00
2024-04-06T07:47:26.526Z,36352.00
2024-04-06T07:48:21.817Z,36904.00
2024-04-06T07:49:17.194Z,37120.00
2024-04-06T07:50:12.752Z,38504.00
2024-04-06T07:51:08.202Z,40312.00
2024-04-06T07:52:03.972Z,39296.00
2024-04-06T07:52:59.326Z,38552.00
2024-04-06T07:53:54.619Z,37640.00
2024-04-06T07:54:50.081Z,37528.00
2024-04-06T07:55:45.754Z,37880.00
2024-04-06T07:56:40.773Z,38008.00
2024-04-06T07:57:35.937Z,37856.00
2024-04-06T07:58:30.859Z,37616.00
2024-04-06T07:59:25.881Z,37128.00
2024-04-06T08:00:20.898Z,36648.00
2024-04-06T08:01:15.971Z,36504.00
2024-04-06T08:02:11.140Z,37136.00
2024-04-06T08:03:06.023Z,37328.00
2024-04-06T08:04:01.111Z,37800.00
2024-04-06T08:04:56.092Z,37616.00
2024-04-06T08:05:53.090Z,38424.00
2024-04-06T08:06:48.179Z,38424.00
2024-04-06T08:07:43.226Z,38744.00
2024-04-06T08:08:38.309Z,39288.00
2024-04-06T08:09:34.274Z,41480.00
2024-04-06T08:10:29.847Z,41552.00
2024-04-06T08:11:25.308Z,40352.00
2024-04-06T08:12:21.048Z,42168.00
2024-04-06T08:13:16.413Z,42232.00
2024-04-06T08:14:20.754Z,40728.00
2024-04-06T08:15:07.818Z,40968.00
2024-04-06T08:16:01.932Z,41920.00
2024-04-06T08:16:56.903Z,42920.00
2024-04-06T08:17:52.068Z,43432.00
2024-04-06T08:18:46.987Z,42184.00
2024-04-06T08:19:42.002Z,40240.00
2024-04-06T08:20:37.015Z,40056.00
2024-04-06T08:21:32.026Z,40032.00
2024-04-06T08:22:27.424Z,39968.00
2024-04-06T08:23:22.336Z,41912.00
2024-04-06T08:24:17.371Z,41392.00
2024-04-06T08:25:12.405Z,41480.00
2024-04-06T08:26:07.411Z,37624.00
2024-04-06T08:27:02.436Z,36776.00
2024-04-06T08:27:57.490Z,33240.00
2024-04-06T08:28:52.509Z,34592.00
2024-04-06T08:29:47.528Z,36336.00
2024-04-06T08:30:42.986Z,36976.00
2024-04-06T08:31:38.082Z,33408.00
2024-04-06T08:32:33.227Z,32664.00
2024-04-06T08:33:28.204Z,32776.00
2024-04-06T08:34:23.209Z,36688.00
2024-04-06T08:35:18.241Z,43464.00
2024-04-06T08:36:13.272Z,48840.00
2024-04-06T08:37:08.330Z,45648.00
2024-04-06T08:38:05.695Z,46312.00
2024-04-06T08:39:00.720Z,47640.00
2024-04-06T08:39:55.850Z,47904.00
2024-04-06T08:40:50.884Z,53584.00
2024-04-06T08:41:45.902Z,55200.00
2024-04-06T08:42:40.976Z,54192.00
2024-04-06T08:43:35.978Z,53872.00
2024-04-06T08:44:31.018Z,54144.00
2024-04-06T08:45:27.163Z,51176.00
2024-04-06T08:46:22.690Z,47952.00
2024-04-06T08:47:18.296Z,46944.00
2024-04-06T08:48:13.880Z,48560.00
2024-04-06T08:49:09.294Z,50128.00
2024-04-06T08:50:04.689Z,48592.00
2024-04-06T08:51:00.186Z,48632.00
2024-04-06T08:51:55.574Z,48600.00
2024-04-06T08:52:51.139Z,46992.00
2024-04-06T08:53:46.453Z,49176.00
2024-04-06T08:54:41.465Z,44960.00
2024-04-06T08:55:36.507Z,48624.00
2024-04-06T08:56:31.557Z,46560.00
2024-04-06T08:57:26.592Z,53048.00
2024-04-06T08:58:21.778Z,51320.00
2024-04-06T08:59:16.649Z,51504.00
2024-04-06T09:00:11.778Z,52240.00
2024-04-06T09:01:09.891Z,53760.00
2024-04-06T09:02:04.995Z,55032.00
2024-04-06T09:03:00.044Z,50584.00
2024-04-06T09:03:55.043Z,52816.00
2024-04-06T09:04:50.173Z,51248.00
2024-04-06T09:05:45.158Z,48824.00
2024-04-06T09:06:40.347Z,51592.00
2024-04-06T09:07:35.464Z,47648.00
2024-04-06T09:08:31.288Z,46624.00
2024-04-06T09:09:26.850Z,47920.00
2024-04-06T09:10:22.410Z,49224.00
2024-04-06T09:11:17.986Z,54720.00
2024-04-06T09:12:13.542Z,50872.00
2024-04-06T09:13:09.181Z,48344.00
2024-04-06T09:14:04.669Z,43920.00
2024-04-06T09:15:00.187Z,42480.00
2024-04-06T09:15:55.570Z,44728.00
2024-04-06T09:16:50.881Z,48912.00
2024-04-06T09:17:45.889Z,46880.00
2024-04-06T09:18:40.913Z,48672.00
2024-04-06T09:19:36.017Z,52344.00
2024-04-06T09:20:31.071Z,54984.00
2024-04-06T09:21:26.147Z,55808.00
2024-04-06T09:22:21.153Z,62040.00
2024-04-06T09:23:16.335Z,62072.00
2024-04-06T09:24:13.515Z,61552.00
2024-04-06T09:25:08.720Z,62056.00
2024-04-06T09:26:03.718Z,60264.00
2024-04-06T09:26:58.707Z,61280.00
2024-04-06T09:27:53.800Z,63880.00
2024-04-06T09:28:48.962Z,60720.00
2024-04-06T09:29:43.993Z,59360.00
2024-04-06T09:30:38.971Z,56560.00
2024-04-06T09:31:35.219Z,45728.00
2024-04-06T09:32:30.765Z,59112.00
2024-04-06T09:33:26.129Z,59336.00
2024-04-06T09:34:21.851Z,62824.00
2024-04-06T09:35:17.115Z,63920.00
2024-04-06T09:36:12.684Z,52400.00
2024-04-06T09:37:09.206Z,49368.00
2024-04-06T09:38:04.724Z,50192.00
2024-04-06T09:39:00.437Z,33832.00
2024-04-06T09:39:55.703Z,41656.00
2024-04-06T09:40:51.203Z,41048.00
2024-04-06T09:41:46.717Z,53792.00
2024-04-06T09:42:41.991Z,55552.00
2024-04-06T09:43:37.677Z,54576.00
2024-04-06T09:44:33.387Z,49424.00
2024-04-06T09:45:28.697Z,50344.00
2024-04-06T09:46:24.379Z,47664.00
2024-04-06T09:47:20.017Z,51168.00
2024-04-06T09:48:15.569Z,62984.00
2024-04-06T09:49:11.110Z,63040.00
2024-04-06T09:50:06.168Z,60232.00
2024-04-06T09:51:01.188Z,55976.00
2024-04-06T09:51:56.206Z,52832.00
2024-04-06T09:52:51.231Z,61672.00
2024-04-06T09:53:46.409Z,52504.00
2024-04-06T09:54:41.505Z,61160.00
2024-04-06T09:55:36.556Z,65535.00
2024-04-06T09:56:31.574Z,65535.00
2024-04-06T09:57:26.602Z,65535.00
2024-04-06T09:58:21.644Z,65535.00
2024-04-06T09:59:16.759Z,65535.00
2024-04-06T10:00:11.815Z,65535.00
2024-04-06T10:01:09.404Z,65535.00
2024-04-06T10:02:04.384Z,65535.00
2024-04-06T10:02:59.432Z,65535.00
2024-04-06T10:03:54.546Z,65535.00
2024-04-06T10:04:49.671Z,59240.00
2024-04-06T10:05:44.899Z,55168.00
2024-04-06T10:06:39.794Z,65535.00
2024-04-06T10:07:34.835Z,65535.00
2024-04-06T10:08:29.948Z,65535.00
2024-04-06T10:09:25.214Z,63704.00
2024-04-06T10:10:21.743Z,65535.00
2024-04-06T10:11:17.358Z,65535.00
2024-04-06T10:12:12.888Z,65535.00
2024-04-06T10:13:08.469Z,65535.00
2024-04-06T10:14:03.923Z,65535.00
2024-04-06T10:14:59.894Z,65535.00
2024-04-06T10:15:55.331Z,65535.00
2024-04-06T10:16:51.174Z,65535.00
2024-04-06T10:17:46.492Z,65535.00
2024-04-06T10:18:41.985Z,65535.00
2024-04-06T10:19:37.738Z,65535.00
2024-04-06T10:20:33.036Z,65535.00
2024-04-06T10:21:28.614Z,65535.00
2024-04-06T10:22:24.988Z,65535.00
2024-04-06T10:23:20.413Z,45880.00
2024-04-06T10:24:16.260Z,56256.00
2024-04-06T10:25:11.687Z,59864.00
2024-04-06T10:26:07.241Z,56296.00
2024-04-06T10:27:02.995Z,64752.00
2024-04-06T10:27:58.510Z,65535.00
2024-04-06T10:28:54.352Z,65535.00
2024-04-06T10:29:49.791Z,65535.00
2024-04-06T10:30:45.380Z,65535.00
2024-04-06T10:31:47.335Z,65535.00
2024-04-06T10:32:37.561Z,65535.00
2024-04-06T10:33:32.049Z,65535.00
2024-04-06T10:34:31.540Z,65535.00
2024-04-06T10:35:23.151Z,65535.00
2024-04-06T10:36:17.500Z,65535.00
2024-04-06T10:37:12.407Z,65535.00
2024-04-06T10:38:07.391Z,65535.00
2024-04-06T10:39:02.369Z,65535.00
2024-04-06T10:39:57.948Z,65535.00
2024-04-06T10:40:53.548Z,65535.00
2024-04-06T10:41:48.987Z,65535.00
2024-04-06T10:42:44.711Z,65535.00
2024-04-06T10:43:40.336Z,65535.00
2024-04-06T10:44:36.146Z,65535.00
2024-04-06T10:45:31.731Z,65535.00
2024-04-06T10:46:27.140Z,65535.00
2024-04-06T10:47:22.981Z,65535.00
2024-04-06T10:48:18.269Z,65535.00
2024-04-06T10:49:13.964Z,65535.00
2024-04-06T10:50:10.048Z,65535.00
2024-04-06T10:51:05.870Z,65535.00
2024-04-06T10:52:01.534Z,65535.00
2024-04-06T10:52:56.941Z,65535.00
2024-04-06T10:53:52.548Z,65535.00
2024-04-06T10:54:48.327Z,65535.00
2024-04-06T10:55:43.624Z,65535.00
2024-04-06T10:56:39.520Z,65535.00
2024-04-06T10:57:34.771Z,65535.00
2024-04-06T10:58:30.274Z,65535.00
2024-04-06T10:59:25.773Z,65535.00
2024-04-06T11:00:21.323Z,65535.00
2024-04-06T11:01:17.286Z,65535.00
2024-04-06T11:02:12.455Z,62048.00
2024-04-06T11:03:08.291Z,56800.00
2024-04-06T11:04:03.662Z,46136.00
2024-04-06T11:04:59.142Z,45696.00
2024-04-06T11:05:54.938Z,46680.00
2024-04-06T11:06:50.556Z,52208.00
2024-04-06T11:07:46.030Z,54320.00
2024-04-06T11:08:42.191Z,54448.00
2024-04-06T11:09:37.841Z,55488.00
2024-04-06T11:10:33.869Z,51128.00
2024-04-06T11:11:29.386Z,46504.00
2024-04-06T11:12:24.728Z,45072.00
2024-04-06T11:13:20.558Z,46512.00
2024-04-06T11:14:16.125Z,48568.00
2024-04-06T11:15:11.616Z,47144.00
2024-04-06T11:16:07.114Z,38744.00
2024-04-06T11:17:02.611Z,60496.00
2024-04-06T11:17:59.195Z,65535.00
2024-04-06T11:18:55.952Z,65535.00
2024-04-06T11:19:51.309Z,65535.00
2024-04-06T11:20:46.810Z,65535.00
2024-04-06T11:21:42.867Z,65535.00
2024-04-06T11:24:02.458Z,65535.00
2024-04-06T11:25:00.436Z,65535.00
2024-04-06T11:25:53.175Z,59920.00
2024-04-06T11:26:48.607Z,56032.00
2024-04-06T11:27:43.918Z,64248.00
2024-04-06T11:28:39.428Z,65535.00
2024-04-06T11:29:34.793Z,65535.00
2024-04-06T11:30:30.267Z,65535.00
2024-04-06T11:31:25.805Z,65535.00
2024-04-06T11:32:21.313Z,65535.00
2024-04-06T11:33:16.740Z,65535.00
2024-04-06T11:34:12.224Z,65535.00
2024-04-06T11:35:07.685Z,65535.00
2024-04-06T11:36:02.985Z,65535.00
2024-04-06T11:36:58.377Z,62792.00